Cheyenne Wells, Colorado
Current Conditions -  °F | °C
As of 2:53 PM on Sunday 23 Nov 2014 (Local Time) from KITR Reporting Station
Clear Clear  
Wind Chill: 34°   Ceiling: Unl
Heat Index: 44°   Visibility: 10mi
Dew Point: 11°   Wind: 29mph
Humidity: 26%   Direction: 350°N
Pressure: 29.73"   Gusts: 37mph
Location:  38.82°N, 102.35°W
Report Text: KITR 232153Z AUTO 35025G32KT 10SM CLR 07/M12 A2973 RMK AO2 PK WND 34035/2124 SLP052 T00671117
Loading
Personal Weather Stations






























Interactive Weather Map New forecast layout! Learn more

10-Day Weather Forecast

Advertisements
Track Severe Weather on mobile